<?xml version="1.0" encoding="UTF-8"?>
<gpx version="1.0" creator="Gaggle https://github.com/geeksville/Gaggle" xmlns:xsi="http://www.w3.org/2001/XMLSchema-instance" xmlns="http://www.topografix.com/GPX/1/0" xsi:schemaLocation="http://www.topografix.com/GPX/1/0 http://www.topografix.com/GPX/1/0/gpx.xsd">
<trk>
	<name>Jorgev's flight</name>
	<desc>
	Pilot name:	Jorgev
	Pilot ID:	
	Glider type:	Rush 2
	</desc>
	<trkseg>
		<trkpt lat="42.873345" lon="-5.374906">
			<ele>1604.000000</ele>
		<time>2015-12-22T02:09:23Z</time>
		</trkpt>

		<trkpt lat="42.873271" lon="-5.374936">
			<ele>1587.000000</ele>
		<time>2015-12-22T02:09:49Z</time>
		</trkpt>

		<trkpt lat="42.873298" lon="-5.374916">
			<ele>1591.000000</ele>
		<time>2015-12-22T02:09:54Z</time>
		</trkpt>

		<trkpt lat="42.873292" lon="-5.374860">
			<ele>1600.000000</ele>
		<time>2015-12-22T02:10:53Z</time>
		</trkpt>

		<trkpt lat="42.873273" lon="-5.374826">
			<ele>1601.000000</ele>
		<time>2015-12-22T02:11:11Z</time>
		</trkpt>

		<trkpt lat="42.873234" lon="-5.374817">
			<ele>1599.000000</ele>
		<time>2015-12-22T02:11:15Z</time>
		</trkpt>

		<trkpt lat="42.873080" lon="-5.374693">
			<ele>1596.000000</ele>
		<time>2015-12-22T02:11:18Z</time>
		</trkpt>

		<trkpt lat="42.872927" lon="-5.374555">
			<ele>1597.000000</ele>
		<time>2015-12-22T02:11:21Z</time>
		</trkpt>

		<trkpt lat="42.872923" lon="-5.374269">
			<ele>1594.000000</ele>
		<time>2015-12-22T02:11:24Z</time>
		</trkpt>

		<trkpt lat="42.873060" lon="-5.373930">
			<ele>1596.000000</ele>
		<time>2015-12-22T02:11:28Z</time>
		</trkpt>

		<trkpt lat="42.873184" lon="-5.373683">
			<ele>1594.000000</ele>
		<time>2015-12-22T02:11:31Z</time>
		</trkpt>

		<trkpt lat="42.873343" lon="-5.373429">
			<ele>1592.000000</ele>
		<time>2015-12-22T02:11:34Z</time>
		</trkpt>

		<trkpt lat="42.873463" lon="-5.373182">
			<ele>1593.000000</ele>
		<time>2015-12-22T02:11:37Z</time>
		</trkpt>

		<trkpt lat="42.873490" lon="-5.372939">
			<ele>1595.000000</ele>
		<time>2015-12-22T02:11:40Z</time>
		</trkpt>

		<trkpt lat="42.873362" lon="-5.372794">
			<ele>1593.000000</ele>
		<time>2015-12-22T02:11:43Z</time>
		</trkpt>

		<trkpt lat="42.873183" lon="-5.372887">
			<ele>1588.000000</ele>
		<time>2015-12-22T02:11:46Z</time>
		</trkpt>

		<trkpt lat="42.873062" lon="-5.373136">
			<ele>1585.000000</ele>
		<time>2015-12-22T02:11:49Z</time>
		</trkpt>

		<trkpt lat="42.872911" lon="-5.373389">
			<ele>1584.000000</ele>
		<time>2015-12-22T02:11:52Z</time>
		</trkpt>

		<trkpt lat="42.872745" lon="-5.373607">
			<ele>1581.000000</ele>
		<time>2015-12-22T02:11:55Z</time>
		</trkpt>

		<trkpt lat="42.872563" lon="-5.373779">
			<ele>1578.000000</ele>
		<time>2015-12-22T02:11:58Z</time>
		</trkpt>

		<trkpt lat="42.872379" lon="-5.373944">
			<ele>1575.000000</ele>
		<time>2015-12-22T02:12:01Z</time>
		</trkpt>

		<trkpt lat="42.872155" lon="-5.374085">
			<ele>1573.000000</ele>
		<time>2015-12-22T02:12:04Z</time>
		</trkpt>

		<trkpt lat="42.871992" lon="-5.374297">
			<ele>1575.000000</ele>
		<time>2015-12-22T02:12:07Z</time>
		</trkpt>

		<trkpt lat="42.871831" lon="-5.374541">
			<ele>1575.000000</ele>
		<time>2015-12-22T02:12:10Z</time>
		</trkpt>

		<trkpt lat="42.871684" lon="-5.374852">
			<ele>1577.000000</ele>
		<time>2015-12-22T02:12:13Z</time>
		</trkpt>

		<trkpt lat="42.871518" lon="-5.375103">
			<ele>1574.000000</ele>
		<time>2015-12-22T02:12:16Z</time>
		</trkpt>

		<trkpt lat="42.871322" lon="-5.375424">
			<ele>1571.000000</ele>
		<time>2015-12-22T02:12:19Z</time>
		</trkpt>

		<trkpt lat="42.871196" lon="-5.375794">
			<ele>1573.000000</ele>
		<time>2015-12-22T02:12:22Z</time>
		</trkpt>

		<trkpt lat="42.871155" lon="-5.376226">
			<ele>1572.000000</ele>
		<time>2015-12-22T02:12:25Z</time>
		</trkpt>

		<trkpt lat="42.871078" lon="-5.376640">
			<ele>1570.000000</ele>
		<time>2015-12-22T02:12:28Z</time>
		</trkpt>

		<trkpt lat="42.870884" lon="-5.376869">
			<ele>1572.000000</ele>
		<time>2015-12-22T02:12:31Z</time>
		</trkpt>

		<trkpt lat="42.870729" lon="-5.376840">
			<ele>1570.000000</ele>
		<time>2015-12-22T02:12:34Z</time>
		</trkpt>

		<trkpt lat="42.870659" lon="-5.376646">
			<ele>1568.000000</ele>
		<time>2015-12-22T02:12:37Z</time>
		</trkpt>

		<trkpt lat="42.870715" lon="-5.376419">
			<ele>1564.000000</ele>
		<time>2015-12-22T02:12:40Z</time>
		</trkpt>

		<trkpt lat="42.870803" lon="-5.376208">
			<ele>1559.000000</ele>
		<time>2015-12-22T02:12:43Z</time>
		</trkpt>

		<trkpt lat="42.870863" lon="-5.376021">
			<ele>1557.000000</ele>
		<time>2015-12-22T02:12:46Z</time>
		</trkpt>

		<trkpt lat="42.870938" lon="-5.375815">
			<ele>1554.000000</ele>
		<time>2015-12-22T02:12:49Z</time>
		</trkpt>

		<trkpt lat="42.871018" lon="-5.375603">
			<ele>1553.000000</ele>
		<time>2015-12-22T02:12:52Z</time>
		</trkpt>

		<trkpt lat="42.871117" lon="-5.375426">
			<ele>1553.000000</ele>
		<time>2015-12-22T02:12:55Z</time>
		</trkpt>

		<trkpt lat="42.871211" lon="-5.375227">
			<ele>1553.000000</ele>
		<time>2015-12-22T02:12:58Z</time>
		</trkpt>

		<trkpt lat="42.871304" lon="-5.375014">
			<ele>1553.000000</ele>
		<time>2015-12-22T02:13:01Z</time>
		</trkpt>

		<trkpt lat="42.871408" lon="-5.374831">
			<ele>1551.000000</ele>
		<time>2015-12-22T02:13:04Z</time>
		</trkpt>

		<trkpt lat="42.871534" lon="-5.374641">
			<ele>1551.000000</ele>
		<time>2015-12-22T02:13:07Z</time>
		</trkpt>

		<trkpt lat="42.871649" lon="-5.374423">
			<ele>1552.000000</ele>
		<time>2015-12-22T02:13:10Z</time>
		</trkpt>

		<trkpt lat="42.871738" lon="-5.374220">
			<ele>1551.000000</ele>
		<time>2015-12-22T02:13:13Z</time>
		</trkpt>

		<trkpt lat="42.871788" lon="-5.373991">
			<ele>1553.000000</ele>
		<time>2015-12-22T02:13:16Z</time>
		</trkpt>

		<trkpt lat="42.871833" lon="-5.373766">
			<ele>1548.000000</ele>
		<time>2015-12-22T02:13:20Z</time>
		</trkpt>

		<trkpt lat="42.871706" lon="-5.373643">
			<ele>1543.000000</ele>
		<time>2015-12-22T02:13:23Z</time>
		</trkpt>

		<trkpt lat="42.871525" lon="-5.373679">
			<ele>1541.000000</ele>
		<time>2015-12-22T02:13:26Z</time>
		</trkpt>

		<trkpt lat="42.871342" lon="-5.373737">
			<ele>1540.000000</ele>
		<time>2015-12-22T02:13:29Z</time>
		</trkpt>

		<trkpt lat="42.871141" lon="-5.373839">
			<ele>1537.000000</ele>
		<time>2015-12-22T02:13:32Z</time>
		</trkpt>

		<trkpt lat="42.870905" lon="-5.373845">
			<ele>1533.000000</ele>
		<time>2015-12-22T02:13:35Z</time>
		</trkpt>

		<trkpt lat="42.870795" lon="-5.373687">
			<ele>1530.000000</ele>
		<time>2015-12-22T02:13:38Z</time>
		</trkpt>

		<trkpt lat="42.870824" lon="-5.373494">
			<ele>1527.000000</ele>
		<time>2015-12-22T02:13:41Z</time>
		</trkpt>

		<trkpt lat="42.870978" lon="-5.373347">
			<ele>1525.000000</ele>
		<time>2015-12-22T02:13:44Z</time>
		</trkpt>

		<trkpt lat="42.871154" lon="-5.373250">
			<ele>1522.000000</ele>
		<time>2015-12-22T02:13:47Z</time>
		</trkpt>

		<trkpt lat="42.871283" lon="-5.373027">
			<ele>1518.000000</ele>
		<time>2015-12-22T02:13:50Z</time>
		</trkpt>

		<trkpt lat="42.871331" lon="-5.372709">
			<ele>1512.000000</ele>
		<time>2015-12-22T02:13:54Z</time>
		</trkpt>

		<trkpt lat="42.871255" lon="-5.372447">
			<ele>1506.000000</ele>
		<time>2015-12-22T02:13:57Z</time>
		</trkpt>

		<trkpt lat="42.871107" lon="-5.372370">
			<ele>1508.000000</ele>
		<time>2015-12-22T02:14:00Z</time>
		</trkpt>

		<trkpt lat="42.870970" lon="-5.372256">
			<ele>1507.000000</ele>
		<time>2015-12-22T02:14:03Z</time>
		</trkpt>

		<trkpt lat="42.870918" lon="-5.372051">
			<ele>1504.000000</ele>
		<time>2015-12-22T02:14:06Z</time>
		</trkpt>

		<trkpt lat="42.870927" lon="-5.371842">
			<ele>1500.000000</ele>
		<time>2015-12-22T02:14:09Z</time>
		</trkpt>

		<trkpt lat="42.870856" lon="-5.371691">
			<ele>1495.000000</ele>
		<time>2015-12-22T02:14:12Z</time>
		</trkpt>

		<trkpt lat="42.870689" lon="-5.371585">
			<ele>1491.000000</ele>
		<time>2015-12-22T02:14:15Z</time>
		</trkpt>

		<trkpt lat="42.870557" lon="-5.371534">
			<ele>1484.000000</ele>
		<time>2015-12-22T02:14:18Z</time>
		</trkpt>

		<trkpt lat="42.868945" lon="-5.370558">
			<ele>1439.000000</ele>
		<time>2015-12-22T02:14:50Z</time>
		</trkpt>

		<trkpt lat="42.868941" lon="-5.370771">
			<ele>1430.000000</ele>
		<time>2015-12-22T02:14:53Z</time>
		</trkpt>

		<trkpt lat="42.868934" lon="-5.371153">
			<ele>1422.000000</ele>
		<time>2015-12-22T02:14:56Z</time>
		</trkpt>

		<trkpt lat="42.868890" lon="-5.371738">
			<ele>1419.000000</ele>
		<time>2015-12-22T02:15:00Z</time>
		</trkpt>

		<trkpt lat="42.868668" lon="-5.371945">
			<ele>1418.000000</ele>
		<time>2015-12-22T02:15:03Z</time>
		</trkpt>

		<trkpt lat="42.868496" lon="-5.371854">
			<ele>1416.000000</ele>
		<time>2015-12-22T02:15:06Z</time>
		</trkpt>

		<trkpt lat="42.868378" lon="-5.371645">
			<ele>1413.000000</ele>
		<time>2015-12-22T02:15:09Z</time>
		</trkpt>

		<trkpt lat="42.868310" lon="-5.371423">
			<ele>1409.000000</ele>
		<time>2015-12-22T02:15:12Z</time>
		</trkpt>

		<trkpt lat="42.868243" lon="-5.371182">
			<ele>1405.000000</ele>
		<time>2015-12-22T02:15:15Z</time>
		</trkpt>

		<trkpt lat="42.868185" lon="-5.370928">
			<ele>1402.000000</ele>
		<time>2015-12-22T02:15:18Z</time>
		</trkpt>

		<trkpt lat="42.868087" lon="-5.370698">
			<ele>1397.000000</ele>
		<time>2015-12-22T02:15:21Z</time>
		</trkpt>

		<trkpt lat="42.867928" lon="-5.370513">
			<ele>1392.000000</ele>
		<time>2015-12-22T02:15:24Z</time>
		</trkpt>

		<trkpt lat="42.867783" lon="-5.370315">
			<ele>1385.000000</ele>
		<time>2015-12-22T02:15:27Z</time>
		</trkpt>

		<trkpt lat="42.867623" lon="-5.370162">
			<ele>1381.000000</ele>
		<time>2015-12-22T02:15:30Z</time>
		</trkpt>

		<trkpt lat="42.867482" lon="-5.369971">
			<ele>1373.000000</ele>
		<time>2015-12-22T02:15:33Z</time>
		</trkpt>

		<trkpt lat="42.867338" lon="-5.369770">
			<ele>1365.000000</ele>
		<time>2015-12-22T02:15:36Z</time>
		</trkpt>

		<trkpt lat="42.867102" lon="-5.369491">
			<ele>1354.000000</ele>
		<time>2015-12-22T02:15:41Z</time>
		</trkpt>

		<trkpt lat="42.866942" lon="-5.369313">
			<ele>1350.000000</ele>
		<time>2015-12-22T02:15:44Z</time>
		</trkpt>

		<trkpt lat="42.866757" lon="-5.369127">
			<ele>1346.000000</ele>
		<time>2015-12-22T02:15:47Z</time>
		</trkpt>

		<trkpt lat="42.866603" lon="-5.368952">
			<ele>1346.000000</ele>
		<time>2015-12-22T02:15:50Z</time>
		</trkpt>

		<trkpt lat="42.866431" lon="-5.368790">
			<ele>1341.000000</ele>
		<time>2015-12-22T02:15:53Z</time>
		</trkpt>

		<trkpt lat="42.866310" lon="-5.368580">
			<ele>1339.000000</ele>
		<time>2015-12-22T02:15:56Z</time>
		</trkpt>

		<trkpt lat="42.866186" lon="-5.368362">
			<ele>1336.000000</ele>
		<time>2015-12-22T02:15:59Z</time>
		</trkpt>

		<trkpt lat="42.866079" lon="-5.368128">
			<ele>1333.000000</ele>
		<time>2015-12-22T02:16:02Z</time>
		</trkpt>

		<trkpt lat="42.865892" lon="-5.367911">
			<ele>1326.000000</ele>
		<time>2015-12-22T02:16:06Z</time>
		</trkpt>

		<trkpt lat="42.865757" lon="-5.367728">
			<ele>1321.000000</ele>
		<time>2015-12-22T02:16:09Z</time>
		</trkpt>

		<trkpt lat="42.865626" lon="-5.367511">
			<ele>1320.000000</ele>
		<time>2015-12-22T02:16:12Z</time>
		</trkpt>

		<trkpt lat="42.865529" lon="-5.367314">
			<ele>1321.000000</ele>
		<time>2015-12-22T02:16:15Z</time>
		</trkpt>

		<trkpt lat="42.865428" lon="-5.367107">
			<ele>1316.000000</ele>
		<time>2015-12-22T02:16:18Z</time>
		</trkpt>

		<trkpt lat="42.865303" lon="-5.366878">
			<ele>1313.000000</ele>
		<time>2015-12-22T02:16:21Z</time>
		</trkpt>

		<trkpt lat="42.865148" lon="-5.366682">
			<ele>1307.000000</ele>
		<time>2015-12-22T02:16:24Z</time>
		</trkpt>

		<trkpt lat="42.864973" lon="-5.366554">
			<ele>1302.000000</ele>
		<time>2015-12-22T02:16:27Z</time>
		</trkpt>

		<trkpt lat="42.864743" lon="-5.366458">
			<ele>1294.000000</ele>
		<time>2015-12-22T02:16:30Z</time>
		</trkpt>

		<trkpt lat="42.864565" lon="-5.366281">
			<ele>1290.000000</ele>
		<time>2015-12-22T02:16:33Z</time>
		</trkpt>

		<trkpt lat="42.864431" lon="-5.366109">
			<ele>1285.000000</ele>
		<time>2015-12-22T02:16:36Z</time>
		</trkpt>

		<trkpt lat="42.864291" lon="-5.365874">
			<ele>1277.000000</ele>
		<time>2015-12-22T02:16:39Z</time>
		</trkpt>

		<trkpt lat="42.864142" lon="-5.365688">
			<ele>1273.000000</ele>
		<time>2015-12-22T02:16:42Z</time>
		</trkpt>

		<trkpt lat="42.863958" lon="-5.365511">
			<ele>1267.000000</ele>
		<time>2015-12-22T02:16:45Z</time>
		</trkpt>

		<trkpt lat="42.863826" lon="-5.365299">
			<ele>1261.000000</ele>
		<time>2015-12-22T02:16:48Z</time>
		</trkpt>

		<trkpt lat="42.863688" lon="-5.365134">
			<ele>1256.000000</ele>
		<time>2015-12-22T02:16:51Z</time>
		</trkpt>

		<trkpt lat="42.863539" lon="-5.364953">
			<ele>1253.000000</ele>
		<time>2015-12-22T02:16:54Z</time>
		</trkpt>

		<trkpt lat="42.863372" lon="-5.364850">
			<ele>1249.000000</ele>
		<time>2015-12-22T02:16:57Z</time>
		</trkpt>

		<trkpt lat="42.863213" lon="-5.364675">
			<ele>1242.000000</ele>
		<time>2015-12-22T02:17:00Z</time>
		</trkpt>

		<trkpt lat="42.863058" lon="-5.364549">
			<ele>1239.000000</ele>
		<time>2015-12-22T02:17:03Z</time>
		</trkpt>

		<trkpt lat="42.862897" lon="-5.364400">
			<ele>1233.000000</ele>
		<time>2015-12-22T02:17:06Z</time>
		</trkpt>

		<trkpt lat="42.862724" lon="-5.364279">
			<ele>1228.000000</ele>
		<time>2015-12-22T02:17:09Z</time>
		</trkpt>

		<trkpt lat="42.862557" lon="-5.364128">
			<ele>1221.000000</ele>
		<time>2015-12-22T02:17:12Z</time>
		</trkpt>

		<trkpt lat="42.862392" lon="-5.363970">
			<ele>1217.000000</ele>
		<time>2015-12-22T02:17:15Z</time>
		</trkpt>

		<trkpt lat="42.862221" lon="-5.363825">
			<ele>1210.000000</ele>
		<time>2015-12-22T02:17:18Z</time>
		</trkpt>

		<trkpt lat="42.862055" lon="-5.363657">
			<ele>1203.000000</ele>
		<time>2015-12-22T02:17:21Z</time>
		</trkpt>

		<trkpt lat="42.861887" lon="-5.363488">
			<ele>1197.000000</ele>
		<time>2015-12-22T02:17:24Z</time>
		</trkpt>

		<trkpt lat="42.861702" lon="-5.363305">
			<ele>1191.000000</ele>
		<time>2015-12-22T02:17:27Z</time>
		</trkpt>

		<trkpt lat="42.861529" lon="-5.363124">
			<ele>1186.000000</ele>
		<time>2015-12-22T02:17:30Z</time>
		</trkpt>

		<trkpt lat="42.861381" lon="-5.362925">
			<ele>1184.000000</ele>
		<time>2015-12-22T02:17:33Z</time>
		</trkpt>

		<trkpt lat="42.861226" lon="-5.362806">
			<ele>1179.000000</ele>
		<time>2015-12-22T02:17:36Z</time>
		</trkpt>

		<trkpt lat="42.861037" lon="-5.362676">
			<ele>1172.000000</ele>
		<time>2015-12-22T02:17:39Z</time>
		</trkpt>

		<trkpt lat="42.860815" lon="-5.362491">
			<ele>1163.000000</ele>
		<time>2015-12-22T02:17:43Z</time>
		</trkpt>

		<trkpt lat="42.860643" lon="-5.362337">
			<ele>1160.000000</ele>
		<time>2015-12-22T02:17:46Z</time>
		</trkpt>

		<trkpt lat="42.860520" lon="-5.362139">
			<ele>1158.000000</ele>
		<time>2015-12-22T02:17:49Z</time>
		</trkpt>

		<trkpt lat="42.860420" lon="-5.361942">
			<ele>1154.000000</ele>
		<time>2015-12-22T02:17:52Z</time>
		</trkpt>

		<trkpt lat="42.860362" lon="-5.361710">
			<ele>1152.000000</ele>
		<time>2015-12-22T02:17:55Z</time>
		</trkpt>

		<trkpt lat="42.860292" lon="-5.361485">
			<ele>1148.000000</ele>
		<time>2015-12-22T02:17:58Z</time>
		</trkpt>

		<trkpt lat="42.860230" lon="-5.361289">
			<ele>1145.000000</ele>
		<time>2015-12-22T02:18:01Z</time>
		</trkpt>

		<trkpt lat="42.860165" lon="-5.361045">
			<ele>1141.000000</ele>
		<time>2015-12-22T02:18:04Z</time>
		</trkpt>

		<trkpt lat="42.860123" lon="-5.360772">
			<ele>1141.000000</ele>
		<time>2015-12-22T02:18:07Z</time>
		</trkpt>

		<trkpt lat="42.860054" lon="-5.360569">
			<ele>1139.000000</ele>
		<time>2015-12-22T02:18:10Z</time>
		</trkpt>

		<trkpt lat="42.859974" lon="-5.360366">
			<ele>1136.000000</ele>
		<time>2015-12-22T02:18:13Z</time>
		</trkpt>

		<trkpt lat="42.859851" lon="-5.360133">
			<ele>1132.000000</ele>
		<time>2015-12-22T02:18:17Z</time>
		</trkpt>

		<trkpt lat="42.859754" lon="-5.359982">
			<ele>1130.000000</ele>
		<time>2015-12-22T02:18:20Z</time>
		</trkpt>

		<trkpt lat="42.859634" lon="-5.359833">
			<ele>1122.000000</ele>
		<time>2015-12-22T02:18:23Z</time>
		</trkpt>

		<trkpt lat="42.859488" lon="-5.359695">
			<ele>1120.000000</ele>
		<time>2015-12-22T02:18:26Z</time>
		</trkpt>

		<trkpt lat="42.859374" lon="-5.359531">
			<ele>1115.000000</ele>
		<time>2015-12-22T02:18:29Z</time>
		</trkpt>

		<trkpt lat="42.859254" lon="-5.359337">
			<ele>1109.000000</ele>
		<time>2015-12-22T02:18:32Z</time>
		</trkpt>

		<trkpt lat="42.859169" lon="-5.359113">
			<ele>1107.000000</ele>
		<time>2015-12-22T02:18:35Z</time>
		</trkpt>

		<trkpt lat="42.859085" lon="-5.358955">
			<ele>1103.000000</ele>
		<time>2015-12-22T02:18:38Z</time>
		</trkpt>

		<trkpt lat="42.859010" lon="-5.358867">
			<ele>1104.000000</ele>
		<time>2015-12-22T02:18:41Z</time>
		</trkpt>

		<trkpt lat="42.858973" lon="-5.358779">
			<ele>1103.000000</ele>
		<time>2015-12-22T02:18:44Z</time>
		</trkpt>

		<trkpt lat="42.858906" lon="-5.358684">
			<ele>1103.000000</ele>
		<time>2015-12-22T02:18:47Z</time>
		</trkpt>

		<trkpt lat="42.858825" lon="-5.358559">
			<ele>1101.000000</ele>
		<time>2015-12-22T02:18:50Z</time>
		</trkpt>

		<trkpt lat="42.858748" lon="-5.358451">
			<ele>1101.000000</ele>
		<time>2015-12-22T02:18:53Z</time>
		</trkpt>

		<trkpt lat="42.858700" lon="-5.358388">
			<ele>1097.000000</ele>
		<time>2015-12-22T02:18:57Z</time>
		</trkpt>

		<trkpt lat="42.858635" lon="-5.358257">
			<ele>1097.000000</ele>
		<time>2015-12-22T02:19:01Z</time>
		</trkpt>

		<trkpt lat="42.858574" lon="-5.358170">
			<ele>1096.000000</ele>
		<time>2015-12-22T02:19:04Z</time>
		</trkpt>

		<trkpt lat="42.858481" lon="-5.358122">
			<ele>1098.000000</ele>
		<time>2015-12-22T02:19:07Z</time>
		</trkpt>

		<trkpt lat="42.858402" lon="-5.358078">
			<ele>1095.000000</ele>
		<time>2015-12-22T02:19:10Z</time>
		</trkpt>

		<trkpt lat="42.858342" lon="-5.358004">
			<ele>1094.000000</ele>
		<time>2015-12-22T02:19:13Z</time>
		</trkpt>

		<trkpt lat="42.858293" lon="-5.357923">
			<ele>1094.000000</ele>
		<time>2015-12-22T02:19:16Z</time>
		</trkpt>

		<trkpt lat="42.858243" lon="-5.357846">
			<ele>1093.000000</ele>
		<time>2015-12-22T02:19:19Z</time>
		</trkpt>

		<trkpt lat="42.857927" lon="-5.357650">
			<ele>1074.000000</ele>
		<time>2015-12-22T02:19:51Z</time>
		</trkpt>

		<trkpt lat="42.857994" lon="-5.357712">
			<ele>1082.000000</ele>
		<time>2015-12-22T02:19:54Z</time>
		</trkpt>

		<trkpt lat="42.858053" lon="-5.357723">
			<ele>1085.000000</ele>
		<time>2015-12-22T02:19:57Z</time>
		</trkpt>

		<trkpt lat="42.858089" lon="-5.357719">
			<ele>1092.000000</ele>
		<time>2015-12-22T02:20:00Z</time>
		</trkpt>

		<trkpt lat="42.858113" lon="-5.357742">
			<ele>1091.000000</ele>
		<time>2015-12-22T02:20:36Z</time>
		</trkpt>

		<trkpt lat="42.858139" lon="-5.357725">
			<ele>1091.000000</ele>
		<time>2015-12-22T02:21:39Z</time>
		</trkpt>

	</trkseg>
</trk>
</gpx>

